Carnival Glory — 3FPS9 — position and weather

sailwx.info

Track history (hours):
 
Tides and Currents Weather Stations Pressure Air Temp Water Temp Dewpoint Dewpoint Depression Visibility Wind Speed Wind Dir Waves Ship Positions

Carnival Glory

Operator: Carnival Cruise Lines

Last reported at 2020-Mar-29 14:28 UTC. Time now 2020-Mar-29 15:49 UTC.
Position N 30°07' W 088°52'.

Type: Passenger vessel. MMSI: 357659000.

Date/timePositionNaut miles runAvg speedWind from/ knotsBaromVisibWave heightAir tempDewpointWater temp
2020-Mar-29 14:28N 30°07' W 088°52'1 1.0
2020-Mar-29 13:30N 30°08' W 088°53'1 2.3
2020-Mar-29 13:00N 30°07' W 088°53'4 7.4
2020-Mar-29 12:30N 30°07' W 088°49'1110.9
2020-Mar-29 11:30N 30°07' W 088°36'15 1.3
2020-Mar-28 23:58N 29°59' W 088°22'510.9
2020-Mar-28 23:29N 30°02' W 088°26'17 6.9
2020-Mar-28 20:59N 30°05' W 088°46'0 0.0
2020-Mar-28 19:29N 30°05' W 088°46'0 0.0
2020-Mar-28 15:29N 30°05' W 088°46'0 0.0
2020-Mar-28 12:22N 30°05' W 088°46'0 0.0
2020-Mar-28 11:49N 30°05' W 088°46'0 0.0
2020-Mar-28 11:12N 30°05' W 088°46'0 0.0
2020-Mar-27 14:41N 30°05' W 088°46'0 0.0
2020-Mar-27 13:30N 30°05' W 088°46'0 0.0
2020-Mar-27 12:28N 30°05' W 088°46'0 0.0
2020-Mar-27 11:59N 30°05' W 088°46'0 0.0
2020-Mar-27 10:30N 30°05' W 088°46'0 0.0
2020-Mar-27 09:58N 30°05' W 088°46'0 0.0
2020-Mar-27 08:00N 30°05' W 088°46'0 0.0
2020-Mar-27 06:00N 30°05' W 088°46'0 0.0
2020-Mar-27 03:30N 30°05' W 088°46'5 0.4
2020-Mar-26 15:00N 30°07' W 088°40'4912.1
2020-Mar-26 11:00N 29°36' W 087°57'1313.1
2020-Mar-26 09:59N 29°26' W 087°47'123 6.6
2020-Mar-25 15:30N 29°56' W 090°04'0 0.1
2020-Mar-25 13:29N 29°56' W 090°04'0 0.0
2020-Mar-25 12:59N 29°56' W 090°04'0 0.0
2020-Mar-25 10:29N 29°56' W 090°04'0 0.0
2020-Mar-25 08:29N 29°56' W 090°04'0 0.0
2020-Mar-25 07:59N 29°56' W 090°04'0 0.0
2020-Mar-25 05:29N 29°56' W 090°04'0 0.0
2020-Mar-25 01:29N 29°56' W 090°04'0 0.0
2020-Mar-25 00:59N 29°56' W 090°04'0 0.0
2020-Mar-25 00:29N 29°56' W 090°04'0 0.0
2020-Mar-24 22:59N 29°56' W 090°04'0 0.0
2020-Mar-24 21:29N 29°56' W 090°04'0 0.0
2020-Mar-24 19:59N 29°56' W 090°04'0 0.0
2020-Mar-24 19:29N 29°56' W 090°04'0 0.0
2020-Mar-24 18:59N 29°56' W 090°04'0 0.0
2020-Mar-24 17:29N 29°56' W 090°04'0 0.0
2020-Mar-24 16:59N 29°56' W 090°04'0 0.0
2020-Mar-24 15:29N 29°56' W 090°04'0 0.0
2020-Mar-24 13:59N 29°56' W 090°04'0 0.0
2020-Mar-24 13:29N 29°56' W 090°04'0 0.0
2020-Mar-24 12:59N 29°56' W 090°04'0 0.0
2020-Mar-24 09:59N 29°56' W 090°04'0 0.0
2020-Mar-24 08:29N 29°56' W 090°04'0 0.0
2020-Mar-24 07:59N 29°56' W 090°04'0 0.0
2020-Mar-24 07:29N 29°56' W 090°04'0 0.0
2020-Mar-24 05:29N 29°56' W 090°04'0 0.0
2020-Mar-24 04:29N 29°56' W 090°04'0 0.0
2020-Mar-24 01:29N 29°56' W 090°04'0 0.0
2020-Mar-24 00:29N 29°56' W 090°04'0 0.0
2020-Mar-23 23:29N 29°56' W 090°04'0 0.0
2020-Mar-23 20:59N 29°56' W 090°04'0 0.0
2020-Mar-23 19:29N 29°56' W 090°04'0 0.0
2020-Mar-23 13:29N 29°56' W 090°04'0 0.0
2020-Mar-23 12:56N 29°56' W 090°04'0 0.0
2020-Mar-23 11:29N 29°56' W 090°04'0 0.0
2020-Mar-23 10:59N 29°56' W 090°04'0 0.0
2020-Mar-23 09:29N 29°56' W 090°04'0 0.0
2020-Mar-23 07:59N 29°56' W 090°04'0 0.0
2020-Mar-23 05:29N 29°56' W 090°04'0 0.0
2020-Mar-23 04:29N 29°56' W 090°04'0 0.0
2020-Mar-23 02:29N 29°56' W 090°04'0 0.0
2020-Mar-23 01:59N 29°56' W 090°04'0 0.0
2020-Mar-23 01:29N 29°56' W 090°04'0 0.0
2020-Mar-22 23:59N 29°56' W 090°04'0 0.0
2020-Mar-22 22:26N 29°56' W 090°04'0 0.0
2020-Mar-22 21:59N 29°56' W 090°04'0 0.0
2020-Mar-22 19:59N 29°56' W 090°04'0 0.0
2020-Mar-22 19:29N 29°56' W 090°04'0 0.0
2020-Mar-22 18:20N 29°56' W 090°04'0 0.0
2020-Mar-22 17:29N 29°56' W 090°04'0 0.0
2020-Mar-22 15:59N 29°56' W 090°04'0 0.0
2020-Mar-22 11:53N 29°56' W 090°04'0 0.0
2020-Mar-22 08:29N 29°56' W 090°04'0 0.0
2020-Mar-22 05:59N 29°56' W 090°04'0 0.0
2020-Mar-22 04:56N 29°56' W 090°04'0 0.0
2020-Mar-22 03:29N 29°56' W 090°04'0 0.0
2020-Mar-22 02:29N 29°56' W 090°04'0 0.0
2020-Mar-21 23:29N 29°56' W 090°04'0 0.0
2020-Mar-21 22:29N 29°56' W 090°04'0 0.0
2020-Mar-21 20:29N 29°56' W 090°04'0 0.0
2020-Mar-21 19:29N 29°56' W 090°04'0 0.0
2020-Mar-21 17:59N 29°56' W 090°04'0 0.0
2020-Mar-21 17:29N 29°56' W 090°04'0 0.0
2020-Mar-21 16:29N 29°56' W 090°04'0 0.0
2020-Mar-21 13:29N 29°56' W 090°04'0 0.0
2020-Mar-21 11:29N 29°56' W 090°04'0 0.0
2020-Mar-21 09:29N 29°56' W 090°04'0 0.0
2020-Mar-21 02:59N 29°56' W 090°04'0 0.0
2020-Mar-21 02:29N 29°56' W 090°04'0 0.0
2020-Mar-21 01:59N 29°56' W 090°04'0 0.0
2020-Mar-21 01:26N 29°56' W 090°04'0 0.0
2020-Mar-21 00:59N 29°56' W 090°04'0 0.0
2020-Mar-20 23:56N 29°56' W 090°04'0 0.0
2020-Mar-20 22:59N 29°56' W 090°04'0 0.0
2020-Mar-20 21:29N 29°56' W 090°04'0 0.0
2020-Mar-20 20:59N 29°56' W 090°04'0 0.0
2020-Mar-20 20:29N 29°56' W 090°04'0 0.0
2020-Mar-20 19:29N 29°56' W 090°04'0 0.0
2020-Mar-20 18:59N 29°56' W 090°04'0 0.0
2020-Mar-20 16:59N 29°56' W 090°04'0 0.0
2020-Mar-20 15:59N 29°56' W 090°04'0 0.0
2020-Mar-20 14:29N 29°56' W 090°04'0 0.0
2020-Mar-20 13:59N 29°56' W 090°04'0 0.0
2020-Mar-20 12:56N 29°56' W 090°04'0 0.0
2020-Mar-20 10:56N 29°56' W 090°04'7 3.7
2020-Mar-20 09:00N 29°55' W 089°55'3 5.9
2020-Mar-20 08:30N 29°53' W 089°57'  
Track history (hours):
 
Tides and Currents Weather Stations Pressure Air Temp Water Temp Dewpoint Dewpoint Depression Visibility Wind Speed Wind Dir Waves Ship Positions

Carnival Glory

Operator: Carnival Cruise Lines

Last reported at 2020-Mar-29 14:28 UTC. Time now 2020-Mar-29 15:49 UTC.
Position N 30°07' W 088°52'.

Type: Passenger vessel. MMSI: 357659000.

Date/timePositionNaut miles runAvg speedWind from/ knotsBaromVisibWave heightAir tempDewpointWater temp
2020-Mar-29 14:28N 30°07' W 088°52'1 1.0
2020-Mar-29 13:30N 30°08' W 088°53'1 2.3
2020-Mar-29 13:00N 30°07' W 088°53'4 7.4
2020-Mar-29 12:30N 30°07' W 088°49'1110.9
2020-Mar-29 11:30N 30°07' W 088°36'15 1.3
2020-Mar-28 23:58N 29°59' W 088°22'510.9
2020-Mar-28 23:29N 30°02' W 088°26'17 6.9
2020-Mar-28 20:59N 30°05' W 088°46'0 0.0
2020-Mar-28 19:29N 30°05' W 088°46'0 0.0
2020-Mar-28 15:29N 30°05' W 088°46'0 0.0
2020-Mar-28 12:22N 30°05' W 088°46'0 0.0
2020-Mar-28 11:49N 30°05' W 088°46'0 0.0
2020-Mar-28 11:12N 30°05' W 088°46'0 0.0
2020-Mar-27 14:41N 30°05' W 088°46'0 0.0
2020-Mar-27 13:30N 30°05' W 088°46'0 0.0
2020-Mar-27 12:28N 30°05' W 088°46'0 0.0
2020-Mar-27 11:59N 30°05' W 088°46'0 0.0
2020-Mar-27 10:30N 30°05' W 088°46'0 0.0
2020-Mar-27 09:58N 30°05' W 088°46'0 0.0
2020-Mar-27 08:00N 30°05' W 088°46'0 0.0
2020-Mar-27 06:00N 30°05' W 088°46'0 0.0
2020-Mar-27 03:30N 30°05' W 088°46'5 0.4
2020-Mar-26 15:00N 30°07' W 088°40'4912.1
2020-Mar-26 11:00N 29°36' W 087°57'1313.1
2020-Mar-26 09:59N 29°26' W 087°47'123 6.6
2020-Mar-25 15:30N 29°56' W 090°04'0 0.1
2020-Mar-25 13:29N 29°56' W 090°04'0 0.0
2020-Mar-25 12:59N 29°56' W 090°04'0 0.0
2020-Mar-25 10:29N 29°56' W 090°04'0 0.0
2020-Mar-25 08:29N 29°56' W 090°04'0 0.0
2020-Mar-25 07:59N 29°56' W 090°04'0 0.0
2020-Mar-25 05:29N 29°56' W 090°04'0 0.0
2020-Mar-25 01:29N 29°56' W 090°04'0 0.0
2020-Mar-25 00:59N 29°56' W 090°04'0 0.0
2020-Mar-25 00:29N 29°56' W 090°04'0 0.0
2020-Mar-24 22:59N 29°56' W 090°04'0 0.0
2020-Mar-24 21:29N 29°56' W 090°04'0 0.0
2020-Mar-24 19:59N 29°56' W 090°04'0 0.0
2020-Mar-24 19:29N 29°56' W 090°04'0 0.0
2020-Mar-24 18:59N 29°56' W 090°04'0 0.0
2020-Mar-24 17:29N 29°56' W 090°04'0 0.0
2020-Mar-24 16:59N 29°56' W 090°04'0 0.0
2020-Mar-24 15:29N 29°56' W 090°04'0 0.0
2020-Mar-24 13:59N 29°56' W 090°04'0 0.0
2020-Mar-24 13:29N 29°56' W 090°04'0 0.0
2020-Mar-24 12:59N 29°56' W 090°04'0 0.0
2020-Mar-24 09:59N 29°56' W 090°04'0 0.0
2020-Mar-24 08:29N 29°56' W 090°04'0 0.0
2020-Mar-24 07:59N 29°56' W 090°04'0 0.0
2020-Mar-24 07:29N 29°56' W 090°04'0 0.0
2020-Mar-24 05:29N 29°56' W 090°04'0 0.0
2020-Mar-24 04:29N 29°56' W 090°04'0 0.0
2020-Mar-24 01:29N 29°56' W 090°04'0 0.0
2020-Mar-24 00:29N 29°56' W 090°04'0 0.0
2020-Mar-23 23:29N 29°56' W 090°04'0 0.0
2020-Mar-23 20:59N 29°56' W 090°04'0 0.0
2020-Mar-23 19:29N 29°56' W 090°04'0 0.0
2020-Mar-23 13:29N 29°56' W 090°04'0 0.0
2020-Mar-23 12:56N 29°56' W 090°04'0 0.0
2020-Mar-23 11:29N 29°56' W 090°04'0 0.0
2020-Mar-23 10:59N 29°56' W 090°04'0 0.0
2020-Mar-23 09:29N 29°56' W 090°04'0 0.0
2020-Mar-23 07:59N 29°56' W 090°04'0 0.0
2020-Mar-23 05:29N 29°56' W 090°04'0 0.0
2020-Mar-23 04:29N 29°56' W 090°04'0 0.0
2020-Mar-23 02:29N 29°56' W 090°04'0 0.0
2020-Mar-23 01:59N 29°56' W 090°04'0 0.0
2020-Mar-23 01:29N 29°56' W 090°04'0 0.0
2020-Mar-22 23:59N 29°56' W 090°04'0 0.0
2020-Mar-22 22:26N 29°56' W 090°04'0 0.0
2020-Mar-22 21:59N 29°56' W 090°04'0 0.0
2020-Mar-22 19:59N 29°56' W 090°04'0 0.0
2020-Mar-22 19:29N 29°56' W 090°04'0 0.0
2020-Mar-22 18:20N 29°56' W 090°04'0 0.0
2020-Mar-22 17:29N 29°56' W 090°04'0 0.0
2020-Mar-22 15:59N 29°56' W 090°04'0 0.0
2020-Mar-22 11:53N 29°56' W 090°04'0 0.0
2020-Mar-22 08:29N 29°56' W 090°04'0 0.0
2020-Mar-22 05:59N 29°56' W 090°04'0 0.0
2020-Mar-22 04:56N 29°56' W 090°04'0 0.0
2020-Mar-22 03:29N 29°56' W 090°04'0 0.0
2020-Mar-22 02:29N 29°56' W 090°04'0 0.0
2020-Mar-21 23:29N 29°56' W 090°04'0 0.0
2020-Mar-21 22:29N 29°56' W 090°04'0 0.0
2020-Mar-21 20:29N 29°56' W 090°04'0 0.0
2020-Mar-21 19:29N 29°56' W 090°04'0 0.0
2020-Mar-21 17:59N 29°56' W 090°04'0 0.0
2020-Mar-21 17:29N 29°56' W 090°04'0 0.0
2020-Mar-21 16:29N 29°56' W 090°04'0 0.0
2020-Mar-21 13:29N 29°56' W 090°04'0 0.0
2020-Mar-21 11:29N 29°56' W 090°04'0 0.0
2020-Mar-21 09:29N 29°56' W 090°04'0 0.0
2020-Mar-21 02:59N 29°56' W 090°04'0 0.0
2020-Mar-21 02:29N 29°56' W 090°04'0 0.0
2020-Mar-21 01:59N 29°56' W 090°04'0 0.0
2020-Mar-21 01:26N 29°56' W 090°04'0 0.0
2020-Mar-21 00:59N 29°56' W 090°04'0 0.0
2020-Mar-20 23:56N 29°56' W 090°04'0 0.0
2020-Mar-20 22:59N 29°56' W 090°04'0 0.0
2020-Mar-20 21:29N 29°56' W 090°04'0 0.0
2020-Mar-20 20:59N 29°56' W 090°04'0 0.0
2020-Mar-20 20:29N 29°56' W 090°04'0 0.0
2020-Mar-20 19:29N 29°56' W 090°04'0 0.0
2020-Mar-20 18:59N 29°56' W 090°04'0 0.0
2020-Mar-20 16:59N 29°56' W 090°04'0 0.0
2020-Mar-20 15:59N 29°56' W 090°04'0 0.0
2020-Mar-20 14:29N 29°56' W 090°04'0 0.0
2020-Mar-20 13:59N 29°56' W 090°04'0 0.0
2020-Mar-20 12:56N 29°56' W 090°04'0 0.0
2020-Mar-20 10:56N 29°56' W 090°04'7 3.7
2020-Mar-20 09:00N 29°55' W 089°55'3 5.9
2020-Mar-20 08:30N 29°53' W 089°57'  

Dump ship's entire track history